Simms, MT (59477)

1:53 AM MST on February 07, 2016 (GMT -0700)
Infinity Lofts | | Change Station
CLOSE
Current Station
Personal Weather Station
Location: Sun River, MT
Elevation: 3488 ft
Nearby Weather Stations

Elev 3488 ft 47.55 °N, 111.72 °W | Updated 12 minutes ago

Clear
Clear
25.3 °F
Feels Like 17 °F
N
7.8
Wind Variable Wind from NW

Today
High -- | Low -- °F
--% Chance of Precip.
Yesterday
High -- | Low -- °F
Precip. -- in
Pressure 30.37 in
Visibility 10.0 miles
Clouds Clear
Windchill 17 °F
Dew Point 15 °F
Humidity 64%
Rainfall 0.00 in
Snow Depth Not available.
7:46 AM 5:38 PM
Waning Crescent, 2% visible
METAR KGTF 070753Z 28011KT 10SM CLR M02/M09 A3026 RMK AO2 SLP284 T10221094
Pressure 30.37 in
Visibility 10.0 miles
Clouds Clear
Windchill 17 °F
Dew Point 15 °F
Humidity 64%
Rainfall 0.00 in
Snow Depth Not available.
7:46 AM 5:38 PM
Waning Crescent, 2% visible
METAR KGTF 070753Z 28011KT 10SM CLR M02/M09 A3026 RMK AO2 SLP284 T10221094

10-Day Weather Forecast

Almanac

Astronomy

Feb. 07, 2016 Rise Set
Actual Time
Civil Twilight
Nautical Twilight
Astronomical Twilight
Moon
Length of Visible Light
Length of Day
Tomorrow will be .
, % of the Moon is Illuminated

Today's Extremes

State Highs State Lows

Community

WunderPhotos

Upload Photos

1,891,171 photos uploaded!

WunderBlog® & News

Nearby

Air Quality

  Air Quality AQ Index Pollutant
Not available.

Snow Depth

Station Depth Elevation

Earthquake Activity

City Distance Mag. Time & Date
Minimum magnitude displayed is 2.5.

Coastal Water Temperatures

Place Temperature

Stations

Nearby Weather Stations

Station Location Temp. Windchill Dew Point Humidity Wind Precip. Elev Updated Type
                   

Watches & Warnings

There are currently no watches in effect.